Kilburn, United Kingdom
Current Conditions -  °F | °C
As of 10:20 PM on Friday 28 Nov 2014 (Local Time) from EGNX Reporting Station
Broken Clouds Broken Clouds  
Wind Chill: 44°   Ceiling: 600
Heat Index: 48°   Visibility: 4mi
Dew Point: 48°   Wind: 9mph
Humidity: 100%   Direction: 40°NE
Pressure: 29.77"   Gusts: NA
Location:  53.01°N, 1.44°W
Report Text: EGNX 282220Z 04008KT 6000 BKN006 09/09 Q1008
Loading
Personal Weather Stations






























Interactive Weather Map New forecast layout! Learn more

10-Day Weather Forecast

Advertisements
Track Severe Weather on mobile